Time;durP1;ratioP1;P1;durP2;ratioP2;P2;SDS_P1;SDS_P2;PMS_P1;PMS_P2;Temp;Humidity;BMP_temperature;BMP_pressure;BME280_temperature;BME280_humidity;BME280_pressure;Samples;Min_cycle;Max_cycle;Signal;HPM_P1;HPM_P2
2022/10/04 00:00:58;;;;;;;16.30;9.23;;;;;;;;;;5014320;28;20210;-71
2022/10/04 00:03:25;;;;;;;12.45;9.55;;;;;;;;;;5004973;28;20198;-71
2022/10/04 00:05:54;;;;;;;16.00;9.73;;;;;;;;;;5015509;28;20182;-71
2022/10/04 00:08:19;;;;;;;13.25;9.80;;;;;;;;;;5017824;28;20182;-71
2022/10/04 00:10:44;;;;;;;14.23;9.47;;;;;;;;;;5010245;28;20174;-71
2022/10/04 00:13:22;;;;;;;15.13;8.27;;;;;;;;;;5021194;28;20442;-71
2022/10/04 00:15:48;;;;;;;11.18;7.63;;;;;;;;;;5023498;28;20661;-71
2022/10/04 00:18:27;;;;;;;12.18;8.23;;;;;;;;;;5029677;28;20166;-71
2022/10/04 00:20:52;;;;;;;11.35;8.90;;;;;;;;;;5009693;28;20170;-71
2022/10/04 00:23:23;;;;;;;15.77;8.98;;;;;;;;;;5021579;28;20680;-71
2022/10/04 00:25:52;;;;;;;11.73;9.05;;;;;;;;;;5026757;28;20241;-71
2022/10/04 00:28:20;;;;;;;14.73;8.85;;;;;;;;;;5028524;28;20183;-71
2022/10/04 00:31:04;;;;;;;14.52;10.25;;;;;;;;;;5025995;28;20183;-71
2022/10/04 00:33:41;;;;;;;15.25;9.25;;;;;;;;;;5027515;28;20226;-71
2022/10/04 00:36:22;;;;;;;14.35;10.50;;;;;;;;;;5019449;28;20181;-71
2022/10/04 00:39:05;;;;;;;11.93;9.18;;;;;;;;;;5007858;28;20321;-71
2022/10/04 00:41:41;;;;;;;17.25;11.07;;;;;;;;;;5004211;28;20775;-71
2022/10/04 00:44:09;;;;;;;15.43;10.55;;;;;;;;;;5011842;28;20213;-71
2022/10/04 00:46:35;;;;;;;20.08;11.07;;;;;;;;;;5024209;28;20290;-71
2022/10/04 00:49:03;;;;;;;15.55;11.88;;;;;;;;;;5021280;28;20269;-71
2022/10/04 00:51:33;;;;;;;15.05;10.73;;;;;;;;;;5026966;28;20652;-71
2022/10/04 00:54:13;;;;;;;18.73;11.43;;;;;;;;;;5022182;28;20245;-71
2022/10/04 00:56:38;;;;;;;12.75;10.15;;;;;;;;;;5025752;28;20643;-71
2022/10/04 00:59:22;;;;;;;17.67;10.20;;;;;;;;;;5023813;28;20198;-72
2022/10/04 01:01:50;;;;;;;20.55;11.07;;;;;;;;;;5026064;28;20178;-71
2022/10/04 01:04:34;;;;;;;15.00;10.10;;;;;;;;;;5013521;28;20186;-71
2022/10/04 01:07:01;;;;;;;16.55;10.45;;;;;;;;;;5032379;28;20189;-72
2022/10/04 01:09:27;;;;;;;13.02;9.60;;;;;;;;;;5030003;28;20209;-73
2022/10/04 01:12:01;;;;;;;17.35;11.25;;;;;;;;;;5030921;28;20210;-73
2022/10/04 01:14:30;;;;;;;18.40;11.02;;;;;;;;;;5025893;28;20185;-71
2022/10/04 01:16:55;;;;;;;13.85;9.00;;;;;;;;;;5021668;28;20175;-70
2022/10/04 01:19:20;;;;;;;16.73;10.63;;;;;;;;;;5027231;28;20674;-73
2022/10/04 01:21:46;;;;;;;13.20;9.25;;;;;;;;;;5029124;28;20186;-73
2022/10/04 01:24:11;;;;;;;13.68;9.90;;;;;;;;;;5007211;28;20803;-72
2022/10/04 01:26:39;;;;;;;17.67;10.23;;;;;;;;;;5024311;28;20671;-72
2022/10/04 01:29:12;;;;;;;14.68;10.02;;;;;;;;;;5031695;28;20435;-70
2022/10/04 01:31:39;;;;;;;18.48;11.02;;;;;;;;;;5010459;28;20530;-72
2022/10/04 01:34:05;;;;;;;16.13;11.30;;;;;;;;;;5029806;28;20281;-72
2022/10/04 01:36:32;;;;;;;13.85;9.90;;;;;;;;;;5011284;28;20183;-72
2022/10/04 01:38:57;;;;;;;14.95;10.95;;;;;;;;;;5023117;28;20199;-72
2022/10/04 01:41:37;;;;;;;16.50;11.10;;;;;;;;;;5023018;28;20229;-73
2022/10/04 01:44:04;;;;;;;14.88;11.35;;;;;;;;;;5025484;28;20186;-72
2022/10/04 01:46:33;;;;;;;12.82;10.00;;;;;;;;;;5019823;28;20198;-72
2022/10/04 01:49:01;;;;;;;16.45;11.50;;;;;;;;;;5024218;28;20681;-72
2022/10/04 01:51:30;;;;;;;17.05;10.05;;;;;;;;;;5002601;28;20175;-72
2022/10/04 01:53:58;;;;;;;17.58;10.95;;;;;;;;;;5017234;28;20285;-70
2022/10/04 01:56:26;;;;;;;18.90;12.05;;;;;;;;;;5017532;28;20261;-72
2022/10/04 01:58:54;;;;;;;21.10;12.33;;;;;;;;;;5025609;28;20289;-73
2022/10/04 02:01:22;;;;;;;14.17;10.47;;;;;;;;;;5023883;28;20174;-73
2022/10/04 02:03:54;;;;;;;16.70;10.03;;;;;;;;;;5014456;28;20195;-72
2022/10/04 02:06:19;;;;;;;12.57;9.80;;;;;;;;;;5022644;28;20268;-70
2022/10/04 02:08:48;;;;;;;15.33;10.33;;;;;;;;;;5010272;28;20604;-73
2022/10/04 02:11:16;;;;;;;14.68;10.07;;;;;;;;;;5023186;28;20210;-73
2022/10/04 02:13:42;;;;;;;14.57;10.90;;;;;;;;;;5020871;28;20221;-72
2022/10/04 02:16:08;;;;;;;13.87;9.83;;;;;;;;;;5018305;28;20589;-72
2022/10/04 02:18:35;;;;;;;13.97;10.27;;;;;;;;;;5004059;28;20744;-73
2022/10/04 02:21:03;;;;;;;12.83;9.97;;;;;;;;;;5023687;28;20170;-73
2022/10/04 02:23:29;;;;;;;13.60;9.43;;;;;;;;;;5021949;28;20604;-73
2022/10/04 02:25:54;;;;;;;17.13;11.73;;;;;;;;;;5023348;28;20205;-72
2022/10/04 02:28:19;;;;;;;19.73;10.97;;;;;;;;;;5022475;28;20182;-72
2022/10/04 02:32:56;;;;;;;12.67;9.87;;;;;;;;;;5021607;28;20246;-73
2022/10/04 02:33:32;;;;;;;16.67;11.90;;;;;;;;;;5025246;28;20244;-72
2022/10/04 02:35:58;;;;;;;20.17;12.97;;;;;;;;;;5004152;28;20205;-72
2022/10/04 02:38:29;;;;;;;17.93;12.97;;;;;;;;;;5026670;28;20175;-73
2022/10/04 02:41:01;;;;;;;17.50;12.63;;;;;;;;;;5019227;28;20217;-72
2022/10/04 02:43:28;;;;;;;16.80;11.80;;;;;;;;;;5019953;28;20195;-73
2022/10/04 02:46:08;;;;;;;17.80;12.53;;;;;;;;;;5022474;28;20187;-72
2022/10/04 02:48:33;;;;;;;19.03;11.47;;;;;;;;;;5020159;28;20215;-73
2022/10/04 02:51:10;;;;;;;17.73;12.00;;;;;;;;;;5012702;28;20216;-73
2022/10/04 02:53:42;;;;;;;21.23;12.03;;;;;;;;;;5024475;28;20202;-73
2022/10/04 02:56:09;;;;;;;16.43;12.00;;;;;;;;;;5022738;28;20178;-72
2022/10/04 02:58:36;;;;;;;16.43;11.20;;;;;;;;;;5022405;28;20248;-73
2022/10/04 03:01:01;;;;;;;19.53;11.43;;;;;;;;;;5017387;28;20190;-72
2022/10/04 03:03:31;;;;;;;15.30;11.83;;;;;;;;;;5019366;28;20278;-72
2022/10/04 03:06:03;;;;;;;18.83;11.93;;;;;;;;;;5012167;28;20670;-72
2022/10/04 03:08:30;;;;;;;15.93;11.20;;;;;;;;;;5011346;28;20671;-72
2022/10/04 03:10:58;;;;;;;16.90;11.83;;;;;;;;;;5026814;28;21612;-72
2022/10/04 03:13:23;;;;;;;16.67;12.20;;;;;;;;;;5022064;28;20202;-72
2022/10/04 03:15:49;;;;;;;17.30;11.47;;;;;;;;;;5023188;28;20174;-73
2022/10/04 03:18:14;;;;;;;21.43;12.43;;;;;;;;;;5030208;28;20641;-72
2022/10/04 03:20:40;;;;;;;18.77;12.60;;;;;;;;;;5026256;28;20648;-72
2022/10/04 03:23:06;;;;;;;18.70;12.47;;;;;;;;;;5025777;28;20195;-72
2022/10/04 03:25:42;;;;;;;21.17;12.70;;;;;;;;;;5028614;28;20186;-72
2022/10/04 03:28:07;;;;;;;27.67;13.53;;;;;;;;;;5019341;28;20257;-72
2022/10/04 03:30:33;;;;;;;21.40;13.00;;;;;;;;;;5028876;28;20261;-72
2022/10/04 03:32:58;;;;;;;20.70;12.70;;;;;;;;;;5023615;28;20214;-72
2022/10/04 03:35:34;;;;;;;18.13;13.53;;;;;;;;;;5026634;28;20194;-72
2022/10/04 03:38:03;;;;;;;15.77;12.03;;;;;;;;;;5011140;28;20578;-72
2022/10/04 03:40:31;;;;;;;17.27;12.37;;;;;;;;;;5025201;28;20209;-72
2022/10/04 03:42:57;;;;;;;23.47;12.77;;;;;;;;;;5029382;28;20730;-71
2022/10/04 03:45:23;;;;;;;19.37;13.47;;;;;;;;;;5027969;28;20294;-72
2022/10/04 03:47:49;;;;;;;20.93;13.20;;;;;;;;;;5016284;28;20266;-71
2022/10/04 03:50:14;;;;;;;21.63;12.07;;;;;;;;;;5020789;28;20187;-71
2022/10/04 03:52:42;;;;;;;21.63;14.07;;;;;;;;;;5017970;28;20225;-71
2022/10/04 03:55:11;;;;;;;17.90;11.63;;;;;;;;;;5021967;28;20554;-71
2022/10/04 03:57:36;;;;;;;18.40;13.33;;;;;;;;;;5021792;28;20178;-71
2022/10/04 04:00:03;;;;;;;22.50;12.87;;;;;;;;;;5019385;28;20571;-71
2022/10/04 04:02:29;;;;;;;19.60;13.87;;;;;;;;;;5016788;28;20228;-72
2022/10/04 04:04:54;;;;;;;20.40;13.43;;;;;;;;;;5018840;28;20219;-71
2022/10/04 04:07:23;;;;;;;19.00;13.70;;;;;;;;;;5019184;28;20257;-72
2022/10/04 04:09:49;;;;;;;20.60;15.23;;;;;;;;;;5002060;28;21061;-71
2022/10/04 04:12:22;;;;;;;23.67;15.10;;;;;;;;;;5000986;28;20293;-71
2022/10/04 04:14:49;;;;;;;24.83;14.43;;;;;;;;;;5018612;28;20170;-71
2022/10/04 04:17:26;;;;;;;20.03;13.83;;;;;;;;;;5013450;28;20194;-71
2022/10/04 04:19:52;;;;;;;20.53;14.77;;;;;;;;;;5015645;28;20201;-73
2022/10/04 04:22:18;;;;;;;26.20;14.97;;;;;;;;;;5012613;28;20233;-71
2022/10/04 04:24:44;;;;;;;27.90;16.43;;;;;;;;;;5004071;28;20190;-71
2022/10/04 04:27:09;;;;;;;20.20;14.67;;;;;;;;;;5028314;28;20174;-73
2022/10/04 04:29:38;;;;;;;23.77;14.47;;;;;;;;;;5023616;28;20588;-73
2022/10/04 04:32:04;;;;;;;25.03;16.37;;;;;;;;;;5025663;28;20186;-72
2022/10/04 04:34:31;;;;;;;26.93;16.93;;;;;;;;;;5029746;28;20179;-70
2022/10/04 04:36:58;;;;;;;29.80;16.80;;;;;;;;;;5008334;28;20187;-72
2022/10/04 04:39:40;;;;;;;20.83;14.23;;;;;;;;;;5033296;28;20202;-70
2022/10/04 04:42:05;;;;;;;20.90;16.27;;;;;;;;;;5025252;28;20171;-72
2022/10/04 04:44:31;;;;;;;26.57;17.53;;;;;;;;;;5006671;28;20721;-72
2022/10/04 04:46:59;;;;;;;27.67;17.63;;;;;;;;;;5024306;28;20167;-70
2022/10/04 04:49:26;;;;;;;23.53;16.80;;;;;;;;;;5031346;28;20194;-72
2022/10/04 04:51:51;;;;;;;29.17;17.07;;;;;;;;;;5028998;28;20604;-72
2022/10/04 04:54:17;;;;;;;25.77;16.60;;;;;;;;;;5030195;28;20182;-72
2022/10/04 04:56:42;;;;;;;25.33;16.57;;;;;;;;;;5005326;28;20228;-72
2022/10/04 04:59:08;;;;;;;25.30;16.73;;;;;;;;;;5029202;28;20202;-73
2022/10/04 05:01:34;;;;;;;23.60;17.07;;;;;;;;;;5027002;28;20634;-72
2022/10/04 05:04:01;;;;;;;26.37;17.70;;;;;;;;;;5015368;28;20204;-72
2022/10/04 05:06:26;;;;;;;26.00;17.93;;;;;;;;;;5028412;28;20629;-72
2022/10/04 05:08:52;;;;;;;32.40;18.50;;;;;;;;;;5013160;28;20178;-73
2022/10/04 05:11:18;;;;;;;29.07;17.27;;;;;;;;;;5019216;28;20241;-72
2022/10/04 05:13:46;;;;;;;23.97;16.87;;;;;;;;;;5021231;28;20229;-73
2022/10/04 05:16:20;;;;;;;34.87;20.03;;;;;;;;;;5024263;28;20178;-72
2022/10/04 05:18:46;;;;;;;28.40;18.63;;;;;;;;;;5020936;28;20297;-72
2022/10/04 05:21:13;;;;;;;28.40;17.90;;;;;;;;;;5026476;28;20258;-72
2022/10/04 05:23:39;;;;;;;26.83;17.30;;;;;;;;;;5031577;28;20210;-72
2022/10/04 05:26:08;;;;;;;24.00;16.80;;;;;;;;;;5028833;28;20205;-70
2022/10/04 05:28:34;;;;;;;28.30;18.37;;;;;;;;;;5030011;28;20186;-72
2022/10/04 05:31:18;;;;;;;32.33;17.73;;;;;;;;;;5019688;28;20191;-73
2022/10/04 05:33:48;;;;;;;26.13;17.27;;;;;;;;;;5023723;28;20584;-72
2022/10/04 05:36:23;;;;;;;32.90;18.37;;;;;;;;;;5030231;28;20186;-72
2022/10/04 05:39:01;;;;;;;30.60;17.03;;;;;;;;;;5003884;28;20289;-72
2022/10/04 05:41:30;;;;;;;27.67;18.03;;;;;;;;;;5027080;28;20675;-73
2022/10/04 05:43:55;;;;;;;26.83;16.70;;;;;;;;;;5030988;28;20194;-72
2022/10/04 05:46:32;;;;;;;25.93;17.43;;;;;;;;;;5023737;28;20231;-72
2022/10/04 05:49:04;;;;;;;29.63;17.20;;;;;;;;;;5024604;28;20335;-72
2022/10/04 05:51:32;;;;;;;29.80;16.20;;;;;;;;;;5025382;28;20221;-72
2022/10/04 05:53:59;;;;;;;27.47;15.80;;;;;;;;;;5013642;28;20285;-72
2022/10/04 05:56:48;;;;;;;28.97;18.20;;;;;;;;;;5026422;28;20182;-72
2022/10/04 05:59:19;;;;;;;28.50;17.60;;;;;;;;;;5026659;28;20704;-72
2022/10/04 06:02:17;;;;;;;25.37;16.00;;;;;;;;;;5017835;28;20274;-72
2022/10/04 06:04:51;;;;;;;30.23;17.20;;;;;;;;;;4977250;28;20240;-72
2022/10/04 06:07:31;;;;;;;33.07;17.77;;;;;;;;;;5025845;28;20229;-73
2022/10/04 06:10:08;;;;;;;26.73;17.93;;;;;;;;;;5022055;28;20262;-72
2022/10/04 06:12:42;;;;;;;27.50;17.03;;;;;;;;;;5017897;28;20280;-72
2022/10/04 06:15:27;;;;;;;29.73;16.47;;;;;;;;;;5004946;28;20187;-72
2022/10/04 06:18:11;;;;;;;25.57;16.70;;;;;;;;;;5020110;28;20189;-72
2022/10/04 06:20:42;;;;;;;29.13;15.60;;;;;;;;;;5027456;28;20679;-71
2022/10/04 06:23:12;;;;;;;29.37;17.43;;;;;;;;;;5022894;28;20194;-72
2022/10/04 06:25:50;;;;;;;30.63;18.03;;;;;;;;;;5030704;28;20190;-71
2022/10/04 06:28:19;;;;;;;24.53;15.93;;;;;;;;;;5032388;28;20582;-71
2022/10/04 06:31:02;;;;;;;25.83;16.47;;;;;;;;;;5018889;28;20232;-71
2022/10/04 06:33:30;;;;;;;27.97;16.17;;;;;;;;;;5026228;28;20198;-70
2022/10/04 06:35:58;;;;;;;30.40;18.13;;;;;;;;;;5025878;28;20266;-72
2022/10/04 06:38:33;;;;;;;23.70;16.33;;;;;;;;;;5028934;28;20170;-73
2022/10/04 06:41:06;;;;;;;24.90;16.80;;;;;;;;;;5025153;28;20264;-73
2022/10/04 06:43:31;;;;;;;29.63;17.97;;;;;;;;;;5013826;28;20195;-72
2022/10/04 06:45:59;;;;;;;24.67;16.07;;;;;;;;;;5005313;28;20201;-73
2022/10/04 06:48:30;;;;;;;26.77;18.00;;;;;;;;;;5002308;28;20608;-69
2022/10/04 06:51:11;;;;;;;28.43;16.20;;;;;;;;;;5029966;28;20655;-72
2022/10/04 06:53:58;;;;;;;30.77;17.63;;;;;;;;;;5024588;28;20615;-72
2022/10/04 06:56:23;;;;;;;29.60;18.03;;;;;;;;;;5025001;28;20208;-72
2022/10/04 06:59:01;;;;;;;32.07;17.67;;;;;;;;;;5025885;28;20202;-72
2022/10/04 07:01:34;;;;;;;29.57;18.37;;;;;;;;;;5027813;28;20236;-70
2022/10/04 07:03:59;;;;;;;26.90;18.57;;;;;;;;;;5009329;28;20195;-73
2022/10/04 07:06:34;;;;;;;31.13;20.00;;;;;;;;;;5028031;28;20687;-72
2022/10/04 07:09:02;;;;;;;26.40;16.97;;;;;;;;;;5027203;28;20178;-72
2022/10/04 07:11:45;;;;;;;27.52;14.75;;;;;;;;;;5025417;28;20170;-72
2022/10/04 07:14:14;;;;;;;20.13;14.77;;;;;;;;;;5023568;28;20206;-71
2022/10/04 07:16:42;;;;;;;22.83;12.95;;;;;;;;;;5024959;28;20179;-72
2022/10/04 07:19:08;;;;;;;19.55;13.63;;;;;;;;;;5022097;28;20294;-72
2022/10/04 07:21:53;;;;;;;17.60;11.68;;;;;;;;;;5024429;28;20253;-72
2022/10/04 07:24:23;;;;;;;22.38;13.82;;;;;;;;;;4987891;28;20205;-72
2022/10/04 07:26:49;;;;;;;16.52;10.95;;;;;;;;;;5025805;28;20212;-72
2022/10/04 07:29:20;;;;;;;15.65;9.93;;;;;;;;;;5020035;28;20222;-72
2022/10/04 07:32:04;;;;;;;11.57;9.68;;;;;;;;;;5019655;28;20182;-73
2022/10/04 07:34:31;;;;;;;15.35;9.45;;;;;;;;;;5022357;28;20178;-72
2022/10/04 07:36:58;;;;;;;12.43;9.27;;;;;;;;;;5025123;28;20178;-72
2022/10/04 07:39:26;;;;;;;12.43;9.07;;;;;;;;;;5019759;28;20210;-71
2022/10/04 07:42:11;;;;;;;12.57;8.73;;;;;;;;;;5025720;28;20656;-72
2022/10/04 07:44:38;;;;;;;11.07;9.25;;;;;;;;;;5022394;28;20660;-72
2022/10/04 07:47:19;;;;;;;13.55;9.10;;;;;;;;;;5014000;28;20649;-70
2022/10/04 07:49:44;;;;;;;12.52;8.52;;;;;;;;;;5009975;28;20189;-72
2022/10/04 07:52:28;;;;;;;11.93;8.60;;;;;;;;;;5019696;28;20206;-73
2022/10/04 07:55:12;;;;;;;12.05;8.82;;;;;;;;;;5019439;28;20178;-70
2022/10/04 07:57:40;;;;;;;13.63;8.82;;;;;;;;;;5018123;28;20236;-70
2022/10/04 08:00:14;;;;;;;9.90;7.70;;;;;;;;;;5016321;28;20221;-72
2022/10/04 08:02:51;;;;;;;11.10;8.50;;;;;;;;;;5025665;28;20567;-71
2022/10/04 08:05:21;;;;;;;10.98;8.07;;;;;;;;;;5026969;28;20267;-72
2022/10/04 08:08:05;;;;;;;14.32;8.63;;;;;;;;;;5024026;28;20719;-72
2022/10/04 08:10:35;;;;;;;11.95;8.52;;;;;;;;;;5022720;28;20193;-72
2022/10/04 08:13:06;;;;;;;14.02;8.13;;;;;;;;;;5029081;28;20205;-70
2022/10/04 08:15:36;;;;;;;11.45;7.40;;;;;;;;;;5012158;28;20281;-71
2022/10/04 08:18:16;;;;;;;12.15;7.03;;;;;;;;;;5025312;28;20221;-70
2022/10/04 08:20:58;;;;;;;12.85;8.15;;;;;;;;;;5025847;28;20739;-72
2022/10/04 08:23:42;;;;;;;14.93;8.15;;;;;;;;;;5022957;28;20289;-72
2022/10/04 08:26:26;;;;;;;12.30;7.63;;;;;;;;;;5025371;28;20249;-71
2022/10/04 08:32:00;;;;;;;11.93;7.90;;;;;;;;;;5020072;28;20256;-72
2022/10/04 08:34:41;;;;;;;17.70;8.88;;;;;;;;;;5024782;28;20191;-74
2022/10/04 08:37:27;;;;;;;10.93;7.28;;;;;;;;;;5010083;28;20209;-70
2022/10/04 08:40:01;;;;;;;10.52;7.07;;;;;;;;;;5024009;28;20229;-70
2022/10/04 08:42:40;;;;;;;9.52;6.75;;;;;;;;;;5003098;28;20199;-70
2022/10/04 08:45:19;;;;;;;9.48;6.30;;;;;;;;;;5023710;28;20174;-70
2022/10/04 08:47:44;;;;;;;7.72;6.90;;;;;;;;;;5024151;28;20601;-70
2022/10/04 08:50:28;;;;;;;9.03;6.90;;;;;;;;;;5024033;28;20183;-70
2022/10/04 08:53:06;;;;;;;8.77;6.65;;;;;;;;;;5026281;28;20482;-70
2022/10/04 08:55:46;;;;;;;9.55;6.75;;;;;;;;;;5024351;28;20324;-70
2022/10/04 08:58:12;;;;;;;9.93;6.97;;;;;;;;;;5023619;28;20174;-72
2022/10/04 09:00:47;;;;;;;9.60;6.65;;;;;;;;;;5023008;28;20217;-71
2022/10/04 09:03:34;;;;;;;10.80;6.75;;;;;;;;;;5020092;28;20352;-71
2022/10/04 09:05:59;;;;;;;14.88;7.25;;;;;;;;;;5010313;28;20171;-71
2022/10/04 09:08:25;;;;;;;8.63;6.78;;;;;;;;;;5027887;28;20170;-71
2022/10/04 09:11:09;;;;;;;11.23;7.15;;;;;;;;;;5025323;28;20573;-71
2022/10/04 09:13:57;;;;;;;9.15;6.40;;;;;;;;;;5022065;28;20194;-71
2022/10/04 09:16:41;;;;;;;8.77;6.85;;;;;;;;;;4985880;28;20749;-71
2022/10/04 09:19:15;;;;;;;8.27;6.32;;;;;;;;;;5015585;28;20213;-72
2022/10/04 09:21:46;;;;;;;8.18;6.40;;;;;;;;;;5023792;28;20232;-71
2022/10/04 09:24:27;;;;;;;10.85;6.75;;;;;;;;;;5021464;28;20248;-71
2022/10/04 09:27:09;;;;;;;9.52;6.43;;;;;;;;;;5027458;28;20183;-71
2022/10/04 09:29:45;;;;;;;9.60;6.15;;;;;;;;;;5020699;28;20190;-71
2022/10/04 09:32:20;;;;;;;10.13;6.15;;;;;;;;;;5026429;28;20253;-71
2022/10/04 09:35:05;;;;;;;10.23;5.72;;;;;;;;;;5018827;28;20596;-71
2022/10/04 09:37:36;;;;;;;8.55;6.22;;;;;;;;;;5012862;28;20193;-71
2022/10/04 09:40:20;;;;;;;8.43;6.60;;;;;;;;;;5023274;28;20206;-71
2022/10/04 09:42:54;;;;;;;7.85;5.43;;;;;;;;;;5018920;28;20190;-72
2022/10/04 09:45:24;;;;;;;10.52;6.93;;;;;;;;;;5026727;28;20183;-71
2022/10/04 09:48:08;;;;;;;7.93;5.93;;;;;;;;;;5020224;28;20174;-71
2022/10/04 09:50:46;;;;;;;9.27;6.10;;;;;;;;;;5011992;28;20186;-71
2022/10/04 09:53:23;;;;;;;8.00;5.78;;;;;;;;;;5023800;28;20695;-71
2022/10/04 09:56:00;;;;;;;12.98;6.13;;;;;;;;;;5025877;28;20585;-71
2022/10/04 09:58:31;;;;;;;6.82;5.88;;;;;;;;;;5024446;28;20265;-71
2022/10/04 10:00:59;;;;;;;9.45;5.75;;;;;;;;;;5012549;28;20267;-71
2022/10/04 10:03:45;;;;;;;10.10;5.90;;;;;;;;;;5026940;28;20477;-71
2022/10/04 10:06:19;;;;;;;9.43;5.93;;;;;;;;;;5023478;28;20202;-72
2022/10/04 10:08:53;;;;;;;8.35;5.70;;;;;;;;;;5020406;28;20683;-71
2022/10/04 10:14:23;;;;;;;10.57;6.32;;;;;;;;;;5024036;28;20939;-71
2022/10/04 10:16:59;;;;;;;6.40;5.78;;;;;;;;;;5012130;28;20319;-71
2022/10/04 10:19:43;;;;;;;7.97;5.55;;;;;;;;;;5022966;28;20283;-71
2022/10/04 10:22:14;;;;;;;7.45;6.20;;;;;;;;;;5024923;28;20593;-71
2022/10/04 10:24:42;;;;;;;11.82;5.90;;;;;;;;;;5009490;28;20196;-71
2022/10/04 10:27:07;;;;;;;10.38;5.30;;;;;;;;;;5023640;28;20249;-72
2022/10/04 10:29:48;;;;;;;8.67;6.00;;;;;;;;;;5026575;28;20290;-71
2022/10/04 10:32:32;;;;;;;7.60;5.88;;;;;;;;;;5019981;28;20554;-71
2022/10/04 10:35:12;;;;;;;12.55;6.03;;;;;;;;;;5023402;28;20618;-72
2022/10/04 10:38:12;;;;;;;7.88;6.18;;;;;;;;;;5021405;28;20607;-72
2022/10/04 10:40:44;;;;;;;8.20;5.97;;;;;;;;;;4948423;28;20223;-72
2022/10/04 10:43:25;;;;;;;5.07;4.57;;;;;;;;;;4986892;28;20211;-73
2022/10/04 10:46:09;;;;;;;10.73;6.28;;;;;;;;;;5021692;28;20418;-72
2022/10/04 10:48:56;;;;;;;8.20;5.05;;;;;;;;;;5026020;28;20182;-72
2022/10/04 10:51:24;;;;;;;7.25;5.60;;;;;;;;;;5024642;28;20185;-72
2022/10/04 10:54:08;;;;;;;10.20;5.40;;;;;;;;;;5020545;28;20202;-72
2022/10/04 10:56:52;;;;;;;7.28;5.32;;;;;;;;;;5014474;28;20178;-72
2022/10/04 10:59:50;;;;;;;9.13;4.97;;;;;;;;;;5006530;28;20731;-72
2022/10/04 11:02:32;;;;;;;7.72;5.13;;;;;;;;;;4974846;28;20279;-72
2022/10/04 11:05:00;;;;;;;7.72;4.47;;;;;;;;;;5016028;28;20182;-72
2022/10/04 11:07:25;;;;;;;6.63;5.20;;;;;;;;;;5023054;28;20594;-72
2022/10/04 11:09:53;;;;;;;7.90;5.43;;;;;;;;;;5023981;28;20186;-72
2022/10/04 11:12:38;;;;;;;9.32;4.72;;;;;;;;;;5019294;28;20448;-72
2022/10/04 11:15:23;;;;;;;5.72;4.18;;;;;;;;;;5021595;28;20179;-72
2022/10/04 11:18:18;;;;;;;8.25;4.10;;;;;;;;;;5020282;28;20174;-73
2022/10/04 11:20:43;;;;;;;6.80;4.30;;;;;;;;;;5017253;28;20202;-72
2022/10/04 11:23:11;;;;;;;7.97;4.53;;;;;;;;;;5019497;28;20237;-71
2022/10/04 11:25:40;;;;;;;10.02;4.35;;;;;;;;;;5025690;28;20503;-72
2022/10/04 11:28:25;;;;;;;10.48;5.10;;;;;;;;;;5025634;28;20633;-71
2022/10/04 11:31:09;;;;;;;7.15;4.80;;;;;;;;;;5017200;28;20183;-71
2022/10/04 11:33:51;;;;;;;5.90;4.60;;;;;;;;;;5019564;28;20687;-71
2022/10/04 11:36:26;;;;;;;8.45;4.47;;;;;;;;;;5018098;28;20272;-71
2022/10/04 11:39:03;;;;;;;5.88;4.50;;;;;;;;;;5014377;28;20691;-71
2022/10/04 11:41:38;;;;;;;7.35;4.68;;;;;;;;;;5021489;28;20185;-71
2022/10/04 11:44:03;;;;;;;6.70;4.75;;;;;;;;;;5020969;28;20193;-71
2022/10/04 11:46:52;;;;;;;7.57;4.35;;;;;;;;;;5020107;28;20242;-71
2022/10/04 11:49:27;;;;;;;7.10;4.07;;;;;;;;;;5021972;28;20707;-71
2022/10/04 11:51:59;;;;;;;7.10;4.88;;;;;;;;;;5024409;28;20181;-71
2022/10/04 11:54:44;;;;;;;6.20;4.18;;;;;;;;;;5008469;28;20182;-71
2022/10/04 11:57:21;;;;;;;7.90;4.85;;;;;;;;;;5022657;28;20179;-71
2022/10/04 11:59:55;;;;;;;6.45;4.65;;;;;;;;;;5013954;28;20241;-71
2022/10/04 12:02:33;;;;;;;9.38;4.30;;;;;;;;;;5025807;28;20233;-71
2022/10/04 12:05:17;;;;;;;7.70;4.50;;;;;;;;;;5024096;28;20191;-71
2022/10/04 12:08:01;;;;;;;6.80;4.15;;;;;;;;;;5014134;28;20178;-71
2022/10/04 12:10:34;;;;;;;7.40;4.10;;;;;;;;;;5015501;28;20240;-71
2022/10/04 12:13:21;;;;;;;8.13;4.28;;;;;;;;;;4998097;28;20336;-72
2022/10/04 12:16:05;;;;;;;8.93;5.07;;;;;;;;;;5021512;28;20178;-72
2022/10/04 12:18:31;;;;;;;7.60;4.00;;;;;;;;;;5003291;28;20182;-71
2022/10/04 12:21:15;;;;;;;8.45;4.55;;;;;;;;;;5018797;28;20387;-71
2022/10/04 12:23:46;;;;;;;8.88;4.72;;;;;;;;;;5006095;28;20210;-74
2022/10/04 12:26:20;;;;;;;8.82;4.78;;;;;;;;;;5022236;28;20175;-71
2022/10/04 12:28:54;;;;;;;6.07;4.75;;;;;;;;;;5011567;28;20184;-73
2022/10/04 12:31:48;;;;;;;7.38;4.72;;;;;;;;;;5015286;28;20171;-71
2022/10/04 12:34:23;;;;;;;6.82;4.05;;;;;;;;;;4948272;28;20319;-72
2022/10/04 12:37:04;;;;;;;8.77;4.43;;;;;;;;;;5006156;28;20555;-71
2022/10/04 12:39:29;;;;;;;9.10;4.70;;;;;;;;;;5022671;28;20198;-71
2022/10/04 12:42:05;;;;;;;9.30;4.72;;;;;;;;;;5020864;28;20181;-71
2022/10/04 12:44:40;;;;;;;10.73;4.93;;;;;;;;;;5024955;28;20466;-71
2022/10/04 12:47:08;;;;;;;9.00;5.00;;;;;;;;;;5019775;28;20178;-71
2022/10/04 12:49:51;;;;;;;9.02;5.18;;;;;;;;;;5016960;28;20257;-71
2022/10/04 12:52:22;;;;;;;9.13;4.82;;;;;;;;;;5005529;28;20198;-71
2022/10/04 12:55:03;;;;;;;8.82;4.85;;;;;;;;;;5010201;28;20174;-71
2022/10/04 12:57:31;;;;;;;7.50;5.05;;;;;;;;;;5023093;28;20403;-71
2022/10/04 13:00:11;;;;;;;22.88;5.20;;;;;;;;;;5032065;28;20210;-71
2022/10/04 13:02:42;;;;;;;7.78;4.85;;;;;;;;;;5024447;28;20189;-71
2022/10/04 13:05:16;;;;;;;8.20;4.93;;;;;;;;;;5012632;28;20220;-71
2022/10/04 13:07:53;;;;;;;8.32;4.57;;;;;;;;;;5022145;28;20186;-71
2022/10/04 13:10:31;;;;;;;6.68;4.60;;;;;;;;;;5025044;28;20598;-71
2022/10/04 13:13:10;;;;;;;6.72;4.88;;;;;;;;;;5020855;28;20206;-72
2022/10/04 13:15:57;;;;;;;7.82;5.07;;;;;;;;;;5023952;28;20182;-71
2022/10/04 13:18:22;;;;;;;6.18;4.15;;;;;;;;;;5023449;28;20174;-71
2022/10/04 13:20:53;;;;;;;6.83;4.63;;;;;;;;;;5027734;28;20552;-71
2022/10/04 13:23:21;;;;;;;6.05;4.13;;;;;;;;;;5020625;28;21012;-71
2022/10/04 13:26:02;;;;;;;6.60;4.30;;;;;;;;;;5011541;28;20659;-71
2022/10/04 13:28:47;;;;;;;5.40;3.95;;;;;;;;;;5025943;28;20179;-71
2022/10/04 13:31:22;;;;;;;5.53;4.43;;;;;;;;;;5027231;28;20281;-71
2022/10/04 13:34:01;;;;;;;8.68;4.75;;;;;;;;;;5024726;28;20206;-72
2022/10/04 13:36:42;;;;;;;9.82;4.93;;;;;;;;;;5006310;28;20185;-71
2022/10/04 13:39:08;;;;;;;5.90;4.30;;;;;;;;;;5022754;28;20200;-71
2022/10/04 13:41:42;;;;;;;6.40;4.15;;;;;;;;;;5022555;28;20175;-71
2022/10/04 13:44:07;;;;;;;8.15;3.80;;;;;;;;;;5019919;28;20197;-71
2022/10/04 13:46:46;;;;;;;5.77;4.47;;;;;;;;;;5020756;28;20175;-72
2022/10/04 13:49:30;;;;;;;6.30;3.92;;;;;;;;;;5023909;28;20423;-71
2022/10/04 13:57:50;;;;;;;4.85;3.45;;;;;;;;;;5022057;28;20729;-70
2022/10/04 14:00:27;;;;;;;6.18;4.15;;;;;;;;;;5015930;28;20256;-72
2022/10/04 14:03:09;;;;;;;4.13;3.50;;;;;;;;;;5025056;28;20201;-71
2022/10/04 14:05:59;;;;;;;7.60;3.63;;;;;;;;;;5024692;28;20235;-71
2022/10/04 14:08:24;;;;;;;5.35;3.78;;;;;;;;;;5024194;28;20560;-71
2022/10/04 14:11:07;;;;;;;4.30;3.50;;;;;;;;;;5021408;28;20174;-71
2022/10/04 14:13:44;;;;;;;6.53;3.17;;;;;;;;;;5024319;28;20439;-71
2022/10/04 14:16:25;;;;;;;5.88;4.20;;;;;;;;;;5018746;28;20166;-71
2022/10/04 14:18:53;;;;;;;5.25;3.42;;;;;;;;;;5021612;28;20174;-71
2022/10/04 14:21:37;;;;;;;6.13;3.50;;;;;;;;;;5004348;28;20175;-71
2022/10/04 14:24:20;;;;;;;4.65;3.60;;;;;;;;;;5020368;28;20209;-71
2022/10/04 14:26:46;;;;;;;5.70;3.83;;;;;;;;;;5019564;28;20174;-71
2022/10/04 14:29:30;;;;;;;7.90;3.35;;;;;;;;;;5010112;28;20277;-71
2022/10/04 14:32:14;;;;;;;4.45;3.63;;;;;;;;;;5017516;28;20175;-70
2022/10/04 14:34:55;;;;;;;6.38;3.30;;;;;;;;;;5020881;28;20182;-71
2022/10/04 14:37:33;;;;;;;4.90;3.72;;;;;;;;;;5011448;28;20321;-71
2022/10/04 14:40:10;;;;;;;5.68;4.00;;;;;;;;;;5022469;28;20757;-71
2022/10/04 14:42:43;;;;;;;5.35;4.18;;;;;;;;;;5019258;28;20204;-71
2022/10/04 14:45:10;;;;;;;6.03;3.65;;;;;;;;;;5019211;28;20173;-71
2022/10/04 14:47:54;;;;;;;7.65;3.65;;;;;;;;;;5026496;28;20167;-71
2022/10/04 14:50:26;;;;;;;5.03;3.83;;;;;;;;;;5019220;28;20187;-71
2022/10/04 14:53:10;;;;;;;6.70;3.80;;;;;;;;;;5023472;28;20318;-71
2022/10/04 14:55:47;;;;;;;5.90;4.38;;;;;;;;;;5019430;28;20179;-71
2022/10/04 14:58:31;;;;;;;6.85;4.53;;;;;;;;;;5026142;28;20261;-71
2022/10/04 15:01:05;;;;;;;6.35;3.63;;;;;;;;;;5020342;28;21087;-71
2022/10/04 15:03:39;;;;;;;6.75;3.83;;;;;;;;;;5018485;28;20191;-71
2022/10/04 15:06:15;;;;;;;8.38;3.90;;;;;;;;;;5021710;28;20232;-71
2022/10/04 15:08:58;;;;;;;7.10;3.88;;;;;;;;;;5020062;28;20178;-70
2022/10/04 15:11:46;;;;;;;4.00;3.40;;;;;;;;;;5023435;28;20265;-71
2022/10/04 15:14:38;;;;;;;5.10;3.47;;;;;;;;;;5018890;28;20598;-70
2022/10/04 15:17:09;;;;;;;7.70;4.18;;;;;;;;;;5016673;28;20885;-71